Time;durP1;ratioP1;P1;durP2;ratioP2;P2;SDS_P1;SDS_P2;PMS_P1;PMS_P2;Temp;Humidity;BMP_temperature;BMP_pressure;BME280_temperature;BME280_humidity;BME280_pressure;Samples;Min_cycle;Max_cycle;Signal;HPM_P1;HPM_P2
2022/06/28 00:01:52;;;;;;;3.70;0.60;;;21.10;99.90;;;;;;5090403;28;20435;-48
2022/06/28 00:04:19;;;;;;;2.40;0.50;;;20.70;99.90;;;;;;5090239;28;20467;-49
2022/06/28 00:06:46;;;;;;;1.53;0.43;;;20.70;99.90;;;;;;5090450;28;20504;-48
2022/06/28 00:09:15;;;;;;;1.00;0.40;;;20.60;99.90;;;;;;5090156;28;20471;-47
2022/06/28 00:11:43;;;;;;;1.53;0.67;;;20.50;99.90;;;;;;5090353;28;20443;-47
2022/06/28 00:16:52;;;;;;;1.83;0.50;;;20.20;99.90;;;;;;5089723;28;20430;-48
2022/06/28 00:19:19;;;;;;;1.03;0.40;;;20.30;99.90;;;;;;5090091;28;20459;-47
2022/06/28 00:21:46;;;;;;;1.07;0.50;;;20.40;99.90;;;;;;5089862;28;20436;-48
2022/06/28 00:24:14;;;;;;;1.10;0.50;;;20.60;99.90;;;;;;5090151;28;20503;-47
2022/06/28 00:26:41;;;;;;;1.00;0.40;;;20.80;99.90;;;;;;5090263;28;20489;-46
2022/06/28 00:29:09;;;;;;;1.10;0.47;;;20.80;99.90;;;;;;5089843;28;20524;-48
2022/06/28 00:31:37;;;;;;;1.80;0.50;;;20.80;99.90;;;;;;5089988;28;20478;-49
2022/06/28 00:34:04;;;;;;;1.90;0.50;;;20.80;99.90;;;;;;5089685;28;20950;-47
2022/06/28 00:36:32;;;;;;;1.50;0.60;;;20.70;99.90;;;;;;5090040;28;20501;-51
2022/06/28 00:38:59;;;;;;;1.63;0.60;;;20.70;99.90;;;;;;5089717;28;20443;-47
2022/06/28 00:41:26;;;;;;;1.47;0.60;;;20.50;99.90;;;;;;5089991;28;20869;-46
2022/06/28 00:43:54;;;;;;;2.23;0.73;;;20.40;99.90;;;;;;5089680;28;20475;-49
2022/06/28 00:46:22;;;;;;;2.63;0.70;;;20.20;99.90;;;;;;5090159;28;20467;-47
2022/06/28 00:48:49;;;;;;;2.40;0.90;;;20.00;99.90;;;;;;5090144;28;20446;-48
2022/06/28 00:51:17;;;;;;;1.67;0.60;;;20.10;99.90;;;;;;5094220;28;20860;-47
2022/06/28 00:53:44;;;;;;;1.87;0.63;;;20.20;99.90;;;;;;5094011;28;20492;-49
2022/06/28 00:56:11;;;;;;;1.20;0.60;;;20.30;99.90;;;;;;5093762;28;20527;-47
2022/06/28 00:58:38;;;;;;;1.20;0.60;;;20.40;99.90;;;;;;5093947;28;20440;-47
2022/06/28 01:01:05;;;;;;;1.00;0.43;;;20.50;99.90;;;;;;5094013;28;20439;-49
2022/06/28 01:03:33;;;;;;;1.27;0.60;;;20.50;99.90;;;;;;5093886;28;20562;-47
2022/06/28 01:06:00;;;;;;;1.57;0.90;;;20.60;99.90;;;;;;5093602;28;21023;-48
2022/06/28 01:08:27;;;;;;;1.93;0.93;;;20.70;99.90;;;;;;5093577;28;20989;-48
2022/06/28 01:10:54;;;;;;;1.20;0.70;;;20.60;99.90;;;;;;5093108;28;20966;-48
2022/06/28 01:13:21;;;;;;;1.43;0.60;;;20.60;99.90;;;;;;5093775;28;20526;-50
2022/06/28 01:15:48;;;;;;;1.10;0.60;;;20.40;99.90;;;;;;5093590;28;20455;-48
2022/06/28 01:18:17;;;;;;;1.30;0.70;;;19.90;99.90;;;;;;5093648;28;21074;-48
2022/06/28 01:20:46;;;;;;;1.80;0.90;;;19.80;99.90;;;;;;5092895;28;20535;-47
2022/06/28 01:23:16;;;;;;;1.87;0.70;;;19.40;99.90;;;;;;5093863;28;20470;-47
2022/06/28 01:25:45;;;;;;;1.40;0.90;;;19.20;99.90;;;;;;5093290;28;20633;-47
2022/06/28 01:28:12;;;;;;;2.10;0.90;;;19.20;99.90;;;;;;5093259;28;20910;-46
2022/06/28 01:30:39;;;;;;;1.83;0.87;;;19.30;99.90;;;;;;5093060;28;20443;-49
2022/06/28 01:33:07;;;;;;;1.80;0.90;;;19.50;99.90;;;;;;5093196;28;20446;-48
2022/06/28 01:35:34;;;;;;;2.90;0.97;;;19.70;99.90;;;;;;5092731;28;20479;-47
2022/06/28 01:38:04;;;;;;;1.77;0.90;;;19.90;99.90;;;;;;5093494;28;20475;-47
2022/06/28 01:40:32;;;;;;;1.67;1.00;;;20.00;99.90;;;;;;5093014;28;20447;-47
2022/06/28 01:43:00;;;;;;;3.10;1.30;;;20.10;99.90;;;;;;5093059;28;20987;-46
2022/06/28 01:45:28;;;;;;;1.57;1.20;;;20.20;99.90;;;;;;5092940;28;20916;-48
2022/06/28 01:47:55;;;;;;;1.60;1.20;;;20.30;99.90;;;;;;5092779;28;20435;-51
2022/06/28 01:50:23;;;;;;;2.33;1.40;;;20.20;99.90;;;;;;5092977;28;20440;-47
2022/06/28 01:52:50;;;;;;;2.43;1.40;;;20.00;99.90;;;;;;5093026;28;20521;-48
2022/06/28 01:55:16;;;;;;;1.80;1.50;;;20.10;99.90;;;;;;5092912;28;20866;-48
2022/06/28 01:57:45;;;;;;;1.97;1.40;;;20.00;99.90;;;;;;5092790;28;20439;-47
2022/06/28 02:00:13;;;;;;;1.70;1.47;;;20.00;99.90;;;;;;5091565;28;20450;-49
2022/06/28 02:02:40;;;;;;;1.90;1.33;;;20.00;99.90;;;;;;5092758;28;20444;-46
2022/06/28 02:05:08;;;;;;;3.50;1.50;;;20.10;99.90;;;;;;5092428;28;20490;-48
2022/06/28 02:07:35;;;;;;;1.93;1.63;;;20.00;99.90;;;;;;5092704;28;20450;-47
2022/06/28 02:10:02;;;;;;;3.40;1.13;;;20.00;99.90;;;;;;5092449;28;20439;-47
2022/06/28 02:12:29;;;;;;;2.27;1.47;;;20.00;99.90;;;;;;5092313;28;20806;-50
2022/06/28 02:14:58;;;;;;;1.77;1.20;;;20.00;99.90;;;;;;5092304;28;20455;-47
2022/06/28 02:17:25;;;;;;;1.80;1.07;;;20.10;99.90;;;;;;5092539;28;20493;-47
2022/06/28 02:19:51;;;;;;;1.33;0.90;;;20.10;99.90;;;;;;5092226;28;20443;-47
2022/06/28 02:22:18;;;;;;;1.50;1.00;;;20.20;99.90;;;;;;5092364;28;20530;-48
2022/06/28 02:24:45;;;;;;;1.50;0.90;;;20.30;99.90;;;;;;5092288;28;20832;-48
2022/06/28 02:27:12;;;;;;;2.60;1.03;;;20.40;99.90;;;;;;5092236;28;20479;-47
2022/06/28 02:29:39;;;;;;;1.50;1.30;;;20.20;99.90;;;;;;5092439;28;20457;-46
2022/06/28 02:32:08;;;;;;;1.53;1.17;;;20.00;99.90;;;;;;5091955;28;20521;-48
2022/06/28 02:40:23;;;;;;;2.60;1.20;;;20.10;99.90;;;;;;5091760;28;20415;-48
2022/06/28 02:42:50;;;;;;;2.30;1.17;;;20.20;99.90;;;;;;5091943;28;21027;-47
2022/06/28 02:45:17;;;;;;;1.47;1.20;;;20.20;99.90;;;;;;5091805;28;20482;-51
2022/06/28 02:47:46;;;;;;;1.73;1.33;;;20.20;99.90;;;;;;5091839;28;20526;-47
2022/06/28 02:50:13;;;;;;;2.30;1.43;;;20.30;99.90;;;;;;5091950;28;20734;-47
2022/06/28 02:52:41;;;;;;;3.60;1.73;;;20.20;99.90;;;;;;5091916;28;20440;-48
2022/06/28 02:55:09;;;;;;;2.30;1.90;;;20.00;99.90;;;;;;5091703;28;20456;-46
2022/06/28 02:57:37;;;;;;;2.53;1.70;;;20.10;99.90;;;;;;5091594;28;20860;-47
2022/06/28 03:00:07;;;;;;;2.43;1.73;;;20.20;99.90;;;;;;5091368;28;20462;-47
2022/06/28 03:02:35;;;;;;;3.27;1.40;;;20.00;99.90;;;;;;5091499;28;20942;-47
2022/06/28 03:05:05;;;;;;;1.93;1.27;;;20.10;99.90;;;;;;5091241;28;20482;-48
2022/06/28 03:07:32;;;;;;;1.70;1.37;;;20.20;99.90;;;;;;5091632;28;20439;-47
2022/06/28 03:09:59;;;;;;;1.90;1.60;;;20.20;99.90;;;;;;5091295;28;20439;-47
2022/06/28 03:12:26;;;;;;;2.13;1.50;;;20.40;99.90;;;;;;5090703;28;20448;-50
2022/06/28 03:14:53;;;;;;;1.90;1.70;;;20.40;99.90;;;;;;5091072;28;20513;-48
2022/06/28 03:17:20;;;;;;;3.97;1.40;;;20.50;99.90;;;;;;5091403;28;20547;-46
2022/06/28 03:19:47;;;;;;;1.87;1.27;;;20.40;99.90;;;;;;5090658;28;20449;-46
2022/06/28 03:22:15;;;;;;;2.50;1.80;;;20.50;99.90;;;;;;5091303;28;20470;-47
2022/06/28 03:24:43;;;;;;;1.73;1.30;;;20.50;99.90;;;;;;5091094;28;20475;-48
2022/06/28 03:27:10;;;;;;;1.37;1.23;;;20.50;99.90;;;;;;5091055;28;20435;-49
2022/06/28 03:29:37;;;;;;;1.77;1.30;;;20.40;99.90;;;;;;5090925;28;20474;-47
2022/06/28 03:32:05;;;;;;;1.70;1.20;;;20.50;99.90;;;;;;5090882;28;20480;-50
2022/06/28 03:34:32;;;;;;;2.70;1.27;;;20.40;99.90;;;;;;5090520;28;20501;-49
2022/06/28 03:36:59;;;;;;;1.60;1.30;;;20.50;99.90;;;;;;5092319;28;20447;-47
2022/06/28 03:39:27;;;;;;;2.03;1.20;;;20.50;99.90;;;;;;5090450;28;20994;-48
2022/06/28 03:41:54;;;;;;;2.03;1.20;;;20.50;99.90;;;;;;5091026;28;20527;-50
2022/06/28 03:44:21;;;;;;;1.50;1.30;;;20.40;99.90;;;;;;5090535;28;20524;-47
2022/06/28 03:46:48;;;;;;;2.03;1.20;;;20.20;99.90;;;;;;5091044;28;20527;-46
2022/06/28 03:49:15;;;;;;;3.10;1.30;;;20.30;99.90;;;;;;5090440;28;20473;-48
2022/06/28 03:51:42;;;;;;;2.03;1.30;;;20.40;99.90;;;;;;5090562;28;20482;-47
2022/06/28 03:54:08;;;;;;;3.07;1.30;;;20.50;99.90;;;;;;5090556;28;20828;-46
2022/06/28 03:56:37;;;;;;;3.50;3.20;;;20.50;99.90;;;;;;5090636;28;20460;-48
2022/06/28 03:59:04;;;;;;;2.60;1.50;;;20.60;99.90;;;;;;5090242;28;20479;-47
2022/06/28 04:01:31;;;;;;;1.77;1.20;;;20.60;99.90;;;;;;5090458;28;20479;-47
2022/06/28 04:03:57;;;;;;;1.90;1.20;;;20.70;99.90;;;;;;5090345;28;20482;-47
2022/06/28 04:06:24;;;;;;;1.93;1.00;;;20.80;99.90;;;;;;5090237;28;20574;-49
2022/06/28 04:08:51;;;;;;;2.80;1.23;;;20.80;99.90;;;;;;5090243;28;20431;-47
2022/06/28 04:11:18;;;;;;;4.23;1.07;;;20.70;99.90;;;;;;5090013;28;20444;-46
2022/06/28 04:13:49;;;;;;;1.87;1.33;;;20.70;99.90;;;;;;5090545;28;20518;-47
2022/06/28 04:16:16;;;;;;;1.63;1.30;;;20.70;99.90;;;;;;5090052;28;21024;-47
2022/06/28 04:18:45;;;;;;;1.60;1.20;;;20.70;99.90;;;;;;5090404;28;21198;-46
2022/06/28 04:21:13;;;;;;;1.37;1.10;;;20.60;99.90;;;;;;5089898;28;20812;-48
2022/06/28 04:23:40;;;;;;;2.20;1.50;;;20.60;99.90;;;;;;5089263;28;20436;-47
2022/06/28 04:26:07;;;;;;;1.90;1.67;;;20.70;99.90;;;;;;5089841;28;20510;-47
2022/06/28 04:28:34;;;;;;;2.50;1.77;;;20.60;99.90;;;;;;5090179;28;20850;-46
2022/06/28 04:31:03;;;;;;;2.37;1.73;;;20.60;99.90;;;;;;5089858;28;20725;-48
2022/06/28 04:33:30;;;;;;;1.70;1.60;;;20.60;99.90;;;;;;5089854;28;20539;-49
2022/06/28 04:35:57;;;;;;;2.83;1.53;;;20.60;99.90;;;;;;5089684;28;20502;-48
2022/06/28 04:38:24;;;;;;;2.40;1.23;;;20.60;99.90;;;;;;5090110;28;20478;-47
2022/06/28 04:40:51;;;;;;;1.40;1.10;;;20.60;99.90;;;;;;5089738;28;20471;-46
2022/06/28 04:43:18;;;;;;;1.90;1.60;;;20.70;99.90;;;;;;5089811;28;21003;-48
2022/06/28 04:45:45;;;;;;;2.00;1.30;;;20.70;99.90;;;;;;5089650;28;20602;-49
2022/06/28 04:48:13;;;;;;;2.10;1.60;;;20.80;99.90;;;;;;5089683;28;20534;-47
2022/06/28 04:50:40;;;;;;;1.50;1.27;;;20.90;99.90;;;;;;5089717;28;20496;-49
2022/06/28 04:53:07;;;;;;;1.90;1.40;;;20.90;99.90;;;;;;5089903;28;20493;-47
2022/06/28 04:55:34;;;;;;;1.40;1.30;;;20.90;99.90;;;;;;5089618;28;20546;-49
2022/06/28 04:58:01;;;;;;;2.17;1.50;;;20.90;99.90;;;;;;5089719;28;20527;-47
2022/06/28 05:00:29;;;;;;;2.13;1.13;;;20.90;99.90;;;;;;5089364;28;20436;-47
2022/06/28 05:02:56;;;;;;;2.00;1.40;;;20.80;99.90;;;;;;5089677;28;20447;-48
2022/06/28 05:05:24;;;;;;;1.87;1.47;;;20.90;99.90;;;;;;5089480;28;20483;-47
2022/06/28 05:07:51;;;;;;;2.80;1.70;;;20.90;99.90;;;;;;5089680;28;20471;-50
2022/06/28 05:10:18;;;;;;;1.77;1.20;;;20.90;99.90;;;;;;5089386;28;20523;-47
2022/06/28 05:12:46;;;;;;;2.40;1.57;;;20.90;99.90;;;;;;5089341;28;20989;-47
2022/06/28 05:15:13;;;;;;;2.17;1.20;;;20.80;99.90;;;;;;5089545;28;20524;-48
2022/06/28 05:17:40;;;;;;;5.43;1.30;;;20.90;99.90;;;;;;5089828;28;20475;-48
2022/06/28 05:20:08;;;;;;;1.50;1.20;;;20.80;99.90;;;;;;5089237;28;20439;-46
2022/06/28 05:22:37;;;;;;;2.33;1.23;;;20.90;99.90;;;;;;5089644;28;20531;-47
2022/06/28 05:25:04;;;;;;;2.30;1.40;;;20.80;99.90;;;;;;5089642;28;20558;-48
2022/06/28 05:27:31;;;;;;;2.00;1.80;;;20.90;99.90;;;;;;5089404;28;20443;-47
2022/06/28 05:29:58;;;;;;;1.87;1.50;;;20.90;99.90;;;;;;5089151;28;20498;-47
2022/06/28 05:32:25;;;;;;;2.30;1.67;;;20.90;99.90;;;;;;5089840;28;20471;-49
2022/06/28 05:34:52;;;;;;;1.80;1.50;;;20.80;99.90;;;;;;5089609;28;20532;-47
2022/06/28 05:37:19;;;;;;;2.33;1.50;;;20.80;99.90;;;;;;5093190;28;20920;-46
2022/06/28 05:39:47;;;;;;;1.80;1.50;;;20.80;99.90;;;;;;5092849;28;20469;-47
2022/06/28 05:42:16;;;;;;;2.00;1.60;;;20.80;99.90;;;;;;5093158;28;20474;-49
2022/06/28 05:44:43;;;;;;;2.53;1.60;;;20.80;99.90;;;;;;5092827;28;20544;-47
2022/06/28 05:47:11;;;;;;;1.63;1.27;;;20.80;99.90;;;;;;5093117;28;20443;-47
2022/06/28 05:49:38;;;;;;;2.00;1.60;;;20.60;99.90;;;;;;5092691;28;20446;-46
2022/06/28 05:52:06;;;;;;;2.70;1.73;;;20.60;99.90;;;;;;5093407;28;20485;-47
2022/06/28 05:54:33;;;;;;;2.50;1.33;;;20.50;99.90;;;;;;5092943;28;20471;-47
2022/06/28 05:57:02;;;;;;;1.67;1.43;;;20.50;99.90;;;;;;5093057;28;20932;-47
2022/06/28 05:59:29;;;;;;;1.73;1.20;;;20.60;99.90;;;;;;5092598;28;20527;-49
2022/06/28 06:01:56;;;;;;;2.73;1.53;;;20.60;99.90;;;;;;5092833;28;20471;-46
2022/06/28 06:04:24;;;;;;;1.77;1.57;;;20.70;99.90;;;;;;5092550;28;20488;-49
2022/06/28 06:06:51;;;;;;;2.47;1.80;;;20.80;99.90;;;;;;5092488;28;20482;-47
2022/06/28 06:09:18;;;;;;;1.90;1.47;;;20.90;99.90;;;;;;5092497;28;20482;-49
2022/06/28 06:11:47;;;;;;;2.77;2.53;;;20.80;99.90;;;;;;5092372;28;20522;-48
2022/06/28 06:14:15;;;;;;;1.70;1.20;;;20.90;99.90;;;;;;5092533;28;20439;-48
2022/06/28 06:16:42;;;;;;;4.57;1.60;;;20.90;99.90;;;;;;5092510;28;20439;-48
2022/06/28 06:19:09;;;;;;;1.70;1.30;;;20.90;99.90;;;;;;5092123;28;20475;-47
2022/06/28 06:21:36;;;;;;;2.00;1.60;;;20.90;99.90;;;;;;5092094;28;20530;-49
2022/06/28 06:24:03;;;;;;;1.93;1.30;;;21.00;99.90;;;;;;5092299;28;20475;-47
2022/06/28 06:26:31;;;;;;;1.63;1.37;;;21.00;99.90;;;;;;5092165;28;20670;-49
2022/06/28 06:28:58;;;;;;;1.80;1.27;;;21.10;99.90;;;;;;5091941;28;20975;-48
2022/06/28 06:31:26;;;;;;;2.20;1.53;;;21.20;99.90;;;;;;5092219;28;20448;-47
2022/06/28 06:33:53;;;;;;;1.60;1.30;;;21.30;99.90;;;;;;5092072;28;20435;-48
2022/06/28 06:36:21;;;;;;;2.07;1.40;;;21.30;99.90;;;;;;5092180;28;20499;-48
2022/06/28 06:38:48;;;;;;;1.53;1.20;;;21.50;99.90;;;;;;5091877;28;20451;-48
2022/06/28 06:41:15;;;;;;;1.77;1.43;;;21.50;99.90;;;;;;5092504;28;20486;-49
2022/06/28 06:43:42;;;;;;;1.87;1.27;;;21.60;99.90;;;;;;5092185;28;20479;-47
2022/06/28 06:46:09;;;;;;;1.67;1.27;;;21.60;99.90;;;;;;5091492;28;21021;-47
2022/06/28 06:48:38;;;;;;;1.43;1.23;;;21.50;99.90;;;;;;5091257;28;21008;-47
2022/06/28 06:51:05;;;;;;;3.20;1.50;;;21.50;99.90;;;;;;5091781;28;20530;-47
2022/06/28 06:53:32;;;;;;;1.80;1.13;;;21.50;99.90;;;;;;5091656;28;20475;-47
2022/06/28 06:55:59;;;;;;;2.00;1.50;;;21.40;99.90;;;;;;5091524;28;21007;-49
2022/06/28 06:58:25;;;;;;;1.53;1.13;;;21.30;99.90;;;;;;5091519;28;20532;-47
2022/06/28 07:00:52;;;;;;;2.40;1.37;;;21.20;99.90;;;;;;5091575;28;20568;-51
2022/06/28 07:03:20;;;;;;;1.60;1.20;;;21.20;99.90;;;;;;5091631;28;20463;-47
2022/06/28 07:05:48;;;;;;;2.90;1.33;;;21.20;99.90;;;;;;5091451;28;20477;-50
2022/06/28 07:08:15;;;;;;;1.90;1.27;;;21.30;99.90;;;;;;5091581;28;20475;-50
2022/06/28 07:10:42;;;;;;;1.50;1.17;;;21.40;99.90;;;;;;5090678;28;20563;-50
2022/06/28 07:13:08;;;;;;;2.17;1.10;;;21.50;99.90;;;;;;5091525;28;20526;-47
2022/06/28 07:15:35;;;;;;;3.40;1.53;;;21.60;99.90;;;;;;5091301;28;20462;-50
2022/06/28 07:18:02;;;;;;;1.90;1.10;;;21.50;99.90;;;;;;5091306;28;20445;-48
2022/06/28 07:20:29;;;;;;;3.83;1.60;;;21.50;99.90;;;;;;5090685;28;20435;-48
2022/06/28 07:22:58;;;;;;;2.60;1.17;;;21.30;99.90;;;;;;5091261;28;20535;-47
2022/06/28 07:25:26;;;;;;;1.93;1.20;;;21.20;99.90;;;;;;5091307;28;20861;-49
2022/06/28 07:27:53;;;;;;;1.70;1.13;;;21.00;99.90;;;;;;5091025;28;20482;-47
2022/06/28 07:30:20;;;;;;;1.97;1.07;;;21.10;99.90;;;;;;5090719;28;20878;-49
2022/06/28 07:32:47;;;;;;;2.10;1.13;;;21.30;99.90;;;;;;5091006;28;20432;-47
2022/06/28 07:35:14;;;;;;;1.80;1.10;;;21.50;99.90;;;;;;5090544;28;20474;-48
2022/06/28 07:37:41;;;;;;;2.33;1.23;;;21.60;99.90;;;;;;5091179;28;20857;-48
2022/06/28 07:40:10;;;;;;;1.77;1.10;;;21.90;99.90;;;;;;5090728;28;20500;-48
2022/06/28 07:42:37;;;;;;;5.10;1.90;;;21.90;99.90;;;;;;5090896;28;20470;-49
2022/06/28 07:45:05;;;;;;;2.27;1.00;;;21.90;99.90;;;;;;5090675;28;21007;-49
2022/06/28 07:47:32;;;;;;;2.17;1.20;;;22.10;99.90;;;;;;5090602;28;20471;-47
2022/06/28 07:52:43;;;;;;;2.73;1.30;;;22.70;99.90;;;;;;5090727;28;20430;-48
2022/06/28 07:55:12;;;;;;;3.40;1.30;;;22.90;99.90;;;;;;5090565;28;20466;-51
2022/06/28 07:57:39;;;;;;;3.00;2.30;;;23.00;99.90;;;;;;5090596;28;20439;-47
2022/06/28 08:00:08;;;;;;;2.73;1.50;;;23.10;99.90;;;;;;5090211;28;20870;-49
2022/06/28 08:02:36;;;;;;;1.60;1.10;;;23.10;99.90;;;;;;5090414;28;20956;-47
2022/06/28 08:05:04;;;;;;;1.90;1.10;;;23.00;99.90;;;;;;5090581;28;20463;-47
2022/06/28 08:07:31;;;;;;;1.97;1.17;;;23.30;99.90;;;;;;5090209;28;20575;-49
2022/06/28 08:09:57;;;;;;;1.83;1.40;;;23.40;99.90;;;;;;5090016;28;20453;-47
2022/06/28 08:12:26;;;;;;;1.50;1.10;;;23.50;99.90;;;;;;5089953;28;20516;-47
2022/06/28 08:14:53;;;;;;;1.70;1.10;;;23.50;99.90;;;;;;5090118;28;20554;-51
2022/06/28 08:17:20;;;;;;;2.00;1.10;;;23.60;99.90;;;;;;5090403;28;20481;-47
2022/06/28 08:19:46;;;;;;;1.70;1.10;;;23.60;99.90;;;;;;5089710;28;20928;-47
2022/06/28 08:22:13;;;;;;;1.60;1.40;;;23.70;99.90;;;;;;5090061;28;20932;-49
2022/06/28 08:24:40;;;;;;;1.50;1.40;;;23.80;99.90;;;;;;5090187;28;20463;-47
2022/06/28 08:27:08;;;;;;;1.60;1.13;;;23.70;99.90;;;;;;5090074;28;20525;-49
2022/06/28 08:29:36;;;;;;;1.70;1.53;;;23.80;99.90;;;;;;5089751;28;20475;-47
2022/06/28 08:32:04;;;;;;;1.53;1.30;;;23.90;99.90;;;;;;5090034;28;20441;-47
2022/06/28 08:34:31;;;;;;;2.27;1.20;;;23.90;99.90;;;;;;5089628;28;20561;-47
2022/06/28 08:36:58;;;;;;;2.80;1.37;;;24.10;99.90;;;;;;5089995;28;20929;-47
2022/06/28 08:39:25;;;;;;;1.50;1.13;;;23.80;99.90;;;;;;5089825;28;20497;-48
2022/06/28 08:41:52;;;;;;;1.50;1.30;;;23.90;99.90;;;;;;5089830;28;20863;-49
2022/06/28 08:44:19;;;;;;;2.40;1.30;;;24.10;99.90;;;;;;5089762;28;21005;-49
2022/06/28 08:46:52;;;;;;;1.70;1.30;;;23.90;99.90;;;;;;5089904;28;20555;-48
2022/06/28 08:49:26;;;;;;;3.60;1.70;;;24.10;99.90;;;;;;5089678;28;20482;-49
2022/06/28 08:51:53;;;;;;;1.43;1.30;;;24.10;99.90;;;;;;5090048;28;20447;-47
2022/06/28 08:54:23;;;;;;;2.00;1.27;;;24.10;99.90;;;;;;5090025;28;20916;-47
2022/06/28 08:56:50;;;;;;;2.57;1.37;;;24.10;99.90;;;;;;5090124;28;20435;-50
2022/06/28 08:59:18;;;;;;;1.60;1.40;;;24.10;99.90;;;;;;5089675;28;20435;-47
2022/06/28 09:01:45;;;;;;;1.70;1.33;;;24.00;99.90;;;;;;5089932;28;20534;-48
2022/06/28 09:04:13;;;;;;;1.83;1.73;;;24.00;99.90;;;;;;5090173;28;20808;-48
2022/06/28 09:06:40;;;;;;;2.63;1.60;;;24.10;99.90;;;;;;5089523;28;20507;-49
2022/06/28 09:09:07;;;;;;;3.73;1.70;;;23.60;99.90;;;;;;5089299;28;20534;-48
2022/06/28 09:11:38;;;;;;;5.10;2.07;;;23.80;99.90;;;;;;5092844;28;20444;-47
2022/06/28 09:14:21;;;;;;;4.40;1.90;;;23.80;99.90;;;;;;5094095;28;20489;-47
2022/06/28 09:16:48;;;;;;;1.70;1.40;;;23.90;99.90;;;;;;5093544;28;20436;-48
2022/06/28 09:19:17;;;;;;;2.07;1.90;;;23.90;99.90;;;;;;5093261;28;20446;-49
2022/06/28 09:21:46;;;;;;;2.37;1.50;;;23.90;99.90;;;;;;5093258;28;20480;-47
2022/06/28 09:24:24;;;;;;;1.83;1.60;;;24.20;99.90;;;;;;5093653;28;20500;-49
2022/06/28 09:26:54;;;;;;;1.67;1.57;;;24.30;99.90;;;;;;5093467;28;20466;-48
2022/06/28 09:29:21;;;;;;;2.00;1.80;;;24.30;99.90;;;;;;5093194;28;20447;-49
2022/06/28 09:31:48;;;;;;;2.57;1.50;;;24.30;99.90;;;;;;5093375;28;20462;-47
2022/06/28 09:34:16;;;;;;;2.20;1.70;;;24.30;99.90;;;;;;5093014;28;20470;-47
2022/06/28 09:36:55;;;;;;;2.67;1.87;;;24.30;99.90;;;;;;5094463;28;21024;-48
2022/06/28 09:39:22;;;;;;;1.90;1.37;;;24.30;99.90;;;;;;5092926;28;21116;-47
2022/06/28 09:41:51;;;;;;;1.90;1.70;;;24.30;99.90;;;;;;5093013;28;20481;-48
2022/06/28 09:44:18;;;;;;;2.23;1.60;;;24.20;99.90;;;;;;5093448;28;20538;-48
2022/06/28 09:46:47;;;;;;;2.43;1.50;;;24.30;99.90;;;;;;5093089;28;20494;-50
2022/06/28 09:49:14;;;;;;;1.67;1.20;;;24.30;99.90;;;;;;5092861;28;20866;-49
2022/06/28 09:51:44;;;;;;;2.20;1.50;;;24.40;99.90;;;;;;5092955;28;20443;-47
2022/06/28 09:54:11;;;;;;;3.10;1.83;;;24.40;99.90;;;;;;5092763;28;20928;-47
2022/06/28 09:56:40;;;;;;;1.67;1.50;;;24.40;99.90;;;;;;5093011;28;20514;-48
2022/06/28 09:59:08;;;;;;;1.90;1.70;;;24.30;99.90;;;;;;5092569;28;20860;-48
2022/06/28 10:01:36;;;;;;;2.50;1.80;;;24.20;99.90;;;;;;5092826;28;20475;-48
2022/06/28 10:04:03;;;;;;;3.20;2.20;;;24.20;99.90;;;;;;5092709;28;21029;-47
2022/06/28 10:06:31;;;;;;;2.00;1.53;;;24.10;99.90;;;;;;5092468;28;21057;-48
2022/06/28 10:09:00;;;;;;;1.93;1.43;;;24.10;99.90;;;;;;5092811;28;20929;-49
2022/06/28 10:15:00;;;;;;;2.50;1.67;;;24.10;99.90;;;;;;5092339;28;20758;-47
2022/06/28 10:17:28;;;;;;;2.17;1.40;;;23.90;99.90;;;;;;5067377;28;20424;-49
2022/06/28 10:19:58;;;;;;;2.80;1.90;;;23.90;99.90;;;;;;5092134;28;20470;-47
2022/06/28 10:22:25;;;;;;;2.73;1.83;;;23.70;99.90;;;;;;5091278;28;20440;-47
2022/06/28 10:24:56;;;;;;;3.20;1.90;;;23.50;99.90;;;;;;5092371;28;20528;-48
2022/06/28 10:27:24;;;;;;;3.90;2.03;;;23.30;99.90;;;;;;5092191;28;20887;-48
2022/06/28 10:30:34;;;;;;;3.60;2.10;;;23.10;99.90;;;;;;5091958;28;20517;-50
2022/06/28 10:33:06;;;;;;;3.00;1.50;;;23.30;99.90;;;;;;5071583;28;20534;-48
2022/06/28 10:36:23;;;;;;;2.50;1.93;;;23.50;99.90;;;;;;5091956;28;20471;-47
2022/06/28 10:39:26;;;;;;;2.33;1.70;;;23.70;99.90;;;;;;5085022;28;20509;-48
2022/06/28 10:42:07;;;;;;;3.03;1.50;;;23.80;99.90;;;;;;5092284;28;20439;-48
2022/06/28 10:44:46;;;;;;;2.23;1.93;;;23.90;99.90;;;;;;5092056;28;20868;-47
2022/06/28 10:47:14;;;;;;;2.00;1.80;;;23.90;99.90;;;;;;5091849;28;20486;-48
2022/06/28 10:49:57;;;;;;;2.70;1.60;;;23.80;99.90;;;;;;5091675;28;20530;-47
2022/06/28 10:52:26;;;;;;;2.60;1.93;;;23.80;99.90;;;;;;5092238;28;20451;-47
2022/06/28 10:55:19;;;;;;;2.00;1.50;;;23.90;99.90;;;;;;5091606;28;20995;-47
2022/06/28 10:57:47;;;;;;;4.10;1.97;;;24.10;99.90;;;;;;5072399;28;20443;-48
2022/06/28 11:00:23;;;;;;;2.93;1.43;;;24.00;99.90;;;;;;5091605;28;20710;-49
2022/06/28 11:03:00;;;;;;;2.57;1.73;;;24.00;99.90;;;;;;5091666;28;20916;-48
2022/06/28 11:05:46;;;;;;;2.37;1.80;;;24.10;99.90;;;;;;5091620;28;20485;-51
2022/06/28 11:08:17;;;;;;;2.73;1.67;;;24.20;99.90;;;;;;5091357;28;20991;-47
2022/06/28 11:11:02;;;;;;;4.03;1.77;;;24.30;99.90;;;;;;5090827;28;20463;-47
2022/06/28 11:13:30;;;;;;;2.43;1.70;;;24.30;99.90;;;;;;5091488;28;20940;-47
2022/06/28 11:15:57;;;;;;;2.27;1.70;;;24.30;99.90;;;;;;5091179;28;20902;-47
2022/06/28 11:18:24;;;;;;;2.00;1.63;;;24.30;99.90;;;;;;5091135;28;20523;-50
2022/06/28 11:20:52;;;;;;;2.40;1.90;;;24.40;99.90;;;;;;5090826;28;20480;-47
2022/06/28 11:23:27;;;;;;;2.50;1.73;;;24.40;99.90;;;;;;5091671;28;20439;-49
2022/06/28 11:29:04;;;;;;;3.40;2.23;;;24.60;99.90;;;;;;5091579;28;20474;-51
2022/06/28 11:31:39;;;;;;;2.30;2.00;;;24.70;99.90;;;;;;5071154;28;20505;-51
2022/06/28 11:34:07;;;;;;;2.30;2.10;;;24.70;99.90;;;;;;5090510;28;20436;-47
2022/06/28 11:36:34;;;;;;;2.13;1.80;;;24.80;99.90;;;;;;5090875;28;20520;-48
2022/06/28 11:39:05;;;;;;;2.17;1.90;;;24.80;99.90;;;;;;5090843;28;20891;-47
2022/06/28 11:41:32;;;;;;;2.00;1.80;;;24.70;99.90;;;;;;5090887;28;20702;-50
2022/06/28 11:44:00;;;;;;;3.27;2.20;;;24.80;99.90;;;;;;5090902;28;20786;-49
2022/06/28 11:46:29;;;;;;;2.10;1.90;;;24.80;99.90;;;;;;5091195;28;20887;-47
2022/06/28 11:48:56;;;;;;;2.70;2.23;;;24.80;99.90;;;;;;5090645;28;20514;-48
2022/06/28 11:51:31;;;;;;;2.73;2.53;;;24.70;99.90;;;;;;5090737;28;20435;-47
2022/06/28 11:53:58;;;;;;;1.93;1.70;;;24.70;99.90;;;;;;5090597;28;20439;-47
2022/06/28 11:56:26;;;;;;;2.10;1.90;;;24.70;99.90;;;;;;5090678;28;20491;-47
2022/06/28 11:58:53;;;;;;;3.47;2.73;;;24.70;99.90;;;;;;5090364;28;20818;-48
2022/06/28 12:01:22;;;;;;;3.00;2.60;;;24.60;99.90;;;;;;5090622;28;20840;-47
2022/06/28 12:03:59;;;;;;;3.70;2.50;;;24.30;99.90;;;;;;5090447;28;20443;-50
2022/06/28 12:06:29;;;;;;;2.47;2.27;;;24.20;99.90;;;;;;5090365;28;20467;-48
2022/06/28 12:08:59;;;;;;;3.17;2.87;;;23.90;99.90;;;;;;5089981;28;20482;-47
2022/06/28 12:11:35;;;;;;;2.90;2.57;;;23.50;99.90;;;;;;5090177;28;20509;-48
2022/06/28 12:14:07;;;;;;;3.73;3.20;;;23.40;99.90;;;;;;5090194;28;20471;-49
2022/06/28 12:16:36;;;;;;;4.60;3.07;;;23.10;99.90;;;;;;5090252;28;20471;-48
2022/06/28 12:19:05;;;;;;;3.70;3.03;;;23.00;99.90;;;;;;5089764;28;20467;-48
2022/06/28 12:21:32;;;;;;;3.73;2.90;;;22.80;99.90;;;;;;5090047;28;20623;-49
2022/06/28 12:24:00;;;;;;;3.80;2.53;;;22.70;99.90;;;;;;5090040;28;20971;-46
2022/06/28 12:26:44;;;;;;;6.00;2.97;;;22.60;99.90;;;;;;5090455;28;20466;-48
2022/06/28 12:29:12;;;;;;;5.63;3.97;;;22.60;99.90;;;;;;5089908;28;20515;-48
2022/06/28 12:31:42;;;;;;;3.80;3.50;;;22.40;99.90;;;;;;5090115;28;20431;-46
2022/06/28 12:34:14;;;;;;;7.33;3.47;;;22.40;99.90;;;;;;5089963;28;20812;-48
2022/06/28 12:36:41;;;;;;;5.00;3.77;;;22.30;99.90;;;;;;5089978;28;20502;-48
2022/06/28 12:39:08;;;;;;;4.30;3.90;;;22.10;99.90;;;;;;5089709;28;20438;-46
2022/06/28 12:41:34;;;;;;;4.03;3.63;;;22.10;99.90;;;;;;5089924;28;20435;-47
2022/06/28 12:44:01;;;;;;;4.00;3.70;;;21.90;99.90;;;;;;5090411;28;20523;-50
2022/06/28 12:46:28;;;;;;;4.43;3.90;;;21.60;99.90;;;;;;5089357;28;21035;-47
2022/06/28 12:48:55;;;;;;;5.10;4.60;;;21.50;99.90;;;;;;5089495;28;20534;-47
2022/06/28 12:51:23;;;;;;;4.80;4.30;;;21.50;99.90;;;;;;5089879;28;20488;-48
2022/06/28 12:53:50;;;;;;;4.57;4.17;;;21.10;99.90;;;;;;5089800;28;20515;-47
2022/06/28 12:56:17;;;;;;;4.50;4.10;;;20.80;99.90;;;;;;5090112;28;20470;-47
2022/06/28 12:58:45;;;;;;;6.47;4.63;;;20.60;99.90;;;;;;5090034;28;20468;-49
2022/06/28 13:01:12;;;;;;;4.30;3.83;;;20.60;99.90;;;;;;5089702;28;20443;-47
2022/06/28 13:03:40;;;;;;;5.50;4.53;;;20.60;99.90;;;;;;5090324;28;20526;-46
2022/06/28 13:06:07;;;;;;;4.30;3.90;;;20.60;99.90;;;;;;5090068;28;20495;-47
2022/06/28 13:08:35;;;;;;;4.30;3.47;;;20.70;99.90;;;;;;5089454;28;20503;-48
2022/06/28 13:11:02;;;;;;;3.93;3.63;;;20.90;99.90;;;;;;5089339;28;20865;-47
2022/06/28 13:13:29;;;;;;;4.40;3.83;;;20.90;99.90;;;;;;5089804;28;20866;-48